Anita, IA

4:16 PM CST on February 05, 2016 (GMT -0600)
IEM | | Change Station
CLOSE
Current Station
Personal Weather Station
Location: Adair, IA
Elevation: 1370 ft
Nearby Weather Stations

Elev 1370 ft 41.52 °N, 94.58 °W | Updated 18 minutes ago

Snow
Snow
27 °F
Feels Like 27 °F
N
0
Wind Variable Wind from North
Gusts 0.0 mph

Today
High -- | Low -- °F
--% Chance of Precip.
Yesterday
High -- | Low -- °F
Precip. -- in
Pressure 30.25 in
Visibility 1.5 miles
Clouds Scattered Clouds 2000 ft
Scattered Clouds 3200 ft
Windchill 27 °F
Dew Point 23 °F
Humidity 86%
Rainfall in
Snow Depth Not available.
7:26 AM 5:39 PM
Waning Crescent, 9% visible
METAR KAIO 052155Z AUTO 19013KT 1 1/2SM BR SCT020 SCT032 M02/M03 A3025 RMK AO2
Pressure 30.25 in
Visibility 1.5 miles
Clouds Scattered Clouds 2000 ft
Scattered Clouds 3200 ft
Windchill 27 °F
Dew Point 23 °F
Humidity 86%
Rainfall in
Snow Depth Not available.
7:26 AM 5:39 PM
Waning Crescent, 9% visible
METAR KAIO 052155Z AUTO 19013KT 1 1/2SM BR SCT020 SCT032 M02/M03 A3025 RMK AO2

10-Day Weather Forecast

Almanac

Astronomy

Feb. 05, 2016 Rise Set
Actual Time
Civil Twilight
Nautical Twilight
Astronomical Twilight
Moon
Length of Visible Light
Length of Day
Tomorrow will be .
, % of the Moon is Illuminated

Today's Extremes

State Highs State Lows

Community

WunderPhotos

Upload Photos

1,890,876 photos uploaded!

WunderBlog® & News

Nearby

Air Quality

  Air Quality AQ Index Pollutant
Not available.

Snow Depth

Station Depth Elevation

Earthquake Activity

City Distance Mag. Time & Date
Minimum magnitude displayed is 2.5.

Coastal Water Temperatures

Place Temperature

Stations

Nearby Weather Stations

Station Location Temp. Windchill Dew Point Humidity Wind Precip. Elev Updated Type
                   

Watches & Warnings

There are currently no watches in effect.